Time;durP1;ratioP1;P1;durP2;ratioP2;P2;SDS_P1;SDS_P2;PMS_P1;PMS_P2;Temp;Humidity;BMP_temperature;BMP_pressure;BME280_temperature;BME280_humidity;BME280_pressure;Samples;Min_cycle;Max_cycle;Signal;HPM_P1;HPM_P2
2022/06/06 00:01:48;;;;;;;10.00;7.57;;;16.60;99.90;;;;;;7410017;19;20070;-90
2022/06/06 00:04:20;;;;;;;11.05;7.90;;;16.60;99.90;;;;;;7413379;19;20014;-89
2022/06/06 00:06:58;;;;;;;10.07;7.68;;;16.80;99.90;;;;;;7411334;19;20014;-90
2022/06/06 00:09:31;;;;;;;10.15;7.88;;;17.10;99.90;;;;;;7412652;19;20011;-90
2022/06/06 00:12:04;;;;;;;10.07;7.88;;;16.60;99.90;;;;;;7411395;19;20015;-88
2022/06/06 00:14:39;;;;;;;11.18;8.10;;;16.50;99.90;;;;;;7416846;19;20078;-89
2022/06/06 00:17:10;;;;;;;12.23;8.35;;;16.70;99.90;;;;;;7409932;19;20014;-90
2022/06/06 00:19:41;;;;;;;9.70;7.78;;;15.40;99.90;;;;;;7416054;19;20432;-88
2022/06/06 00:22:16;;;;;;;11.80;8.65;;;17.30;99.90;;;;;;7410617;19;20025;-90
2022/06/06 00:24:48;;;;;;;12.15;8.07;;;16.60;99.90;;;;;;7409972;19;20013;-88
2022/06/06 00:27:21;;;;;;;11.73;8.55;;;16.50;99.90;;;;;;7409786;19;20010;-88
2022/06/06 00:29:54;;;;;;;10.63;8.57;;;16.40;99.90;;;;;;7412713;19;20011;-89
2022/06/06 00:35:12;;;;;;;12.52;8.57;;;16.50;99.90;;;;;;7410276;19;20074;-89
2022/06/06 00:37:46;;;;;;;11.00;8.50;;;16.60;99.90;;;;;;7406439;19;20007;-87
2022/06/06 00:40:18;;;;;;;11.90;8.70;;;16.70;99.90;;;;;;7406415;19;20529;-88
2022/06/06 00:42:49;;;;;;;11.45;8.43;;;16.60;99.90;;;;;;7409886;19;20038;-87
2022/06/06 00:45:31;;;;;;;13.30;10.02;;;16.60;99.90;;;;;;7407649;19;20011;-89
2022/06/06 00:48:25;;;;;;;12.68;8.27;;;16.40;99.90;;;;;;7411704;19;20015;-91
2022/06/06 00:51:04;;;;;;;12.13;8.70;;;16.70;99.90;;;;;;7413741;19;20046;-89
2022/06/06 00:53:44;;;;;;;14.10;9.80;;;16.50;99.90;;;;;;7408770;19;20014;-87
2022/06/06 00:56:22;;;;;;;13.50;10.20;;;16.40;99.90;;;;;;7408272;19;20038;-90
2022/06/06 00:58:58;;;;;;;13.50;11.10;;;16.40;99.90;;;;;;7408422;19;20023;-90
2022/06/06 01:01:30;;;;;;;14.15;11.65;;;16.00;99.90;;;;;;7406722;19;20127;-90
2022/06/06 01:04:03;;;;;;;14.55;11.25;;;16.20;99.90;;;;;;7411062;19;20022;-91
2022/06/06 01:06:45;;;;;;;13.30;10.13;;;16.10;99.90;;;;;;7409386;19;20115;-91
2022/06/06 01:09:20;;;;;;;13.65;10.30;;;15.10;99.90;;;;;;7409977;19;20002;-90
2022/06/06 01:11:55;;;;;;;13.98;9.15;;;15.90;99.90;;;;;;7408811;19;20078;-90
2022/06/06 01:14:31;;;;;;;12.83;9.17;;;15.60;99.90;;;;;;7412935;19;20510;-91
2022/06/06 01:17:06;;;;;;;12.13;8.13;;;15.60;99.90;;;;;;7413841;19;20016;-90
2022/06/06 01:20:02;;;;;;;9.93;7.38;;;15.50;99.90;;;;;;7413586;19;20034;-90
2022/06/06 01:23:21;;;;;;;9.23;6.65;;;15.40;99.90;;;;;;7409823;19;20022;-90
2022/06/06 01:26:14;;;;;;;8.70;6.35;;;15.40;99.90;;;;;;7402684;19;20010;-87
2022/06/06 01:28:56;;;;;;;9.13;6.00;;;15.20;99.90;;;;;;7400872;19;20014;-87
2022/06/06 01:31:43;;;;;;;8.27;5.57;;;15.80;99.90;;;;;;7400864;19;20596;-88
2022/06/06 01:34:16;;;;;;;7.55;5.38;;;15.30;99.90;;;;;;7404646;19;20027;-88
2022/06/06 01:36:53;;;;;;;8.65;5.35;;;15.20;99.90;;;;;;7406185;19;20018;-86
2022/06/06 01:39:25;;;;;;;6.50;4.10;;;15.20;99.90;;;;;;7408133;19;20025;-86
2022/06/06 01:42:08;;;;;;;6.22;4.30;;;15.30;99.90;;;;;;7401888;19;20017;-88
2022/06/06 01:44:48;;;;;;;6.10;4.15;;;15.00;99.90;;;;;;7402607;19;20027;-87
2022/06/06 01:47:23;;;;;;;7.53;4.38;;;15.00;99.90;;;;;;7403185;19;20021;-88
2022/06/06 01:49:59;;;;;;;6.32;4.43;;;15.00;99.90;;;;;;7404249;19;20011;-87
2022/06/06 01:52:29;;;;;;;5.82;4.32;;;15.00;99.90;;;;;;7405232;19;20070;-89
2022/06/06 01:55:01;;;;;;;6.75;5.10;;;15.00;99.90;;;;;;7405324;19;20482;-89
2022/06/06 01:57:31;;;;;;;6.82;5.25;;;14.90;99.90;;;;;;7399531;19;20016;-88
2022/06/06 02:00:05;;;;;;;7.93;4.97;;;15.00;99.90;;;;;;7400613;19;20026;-89
2022/06/06 02:02:36;;;;;;;6.57;5.10;;;15.00;99.90;;;;;;7403143;19;20014;-90
2022/06/06 02:05:08;;;;;;;7.20;4.78;;;14.70;99.90;;;;;;7405639;19;20046;-90
2022/06/06 02:07:42;;;;;;;7.35;4.88;;;14.60;99.90;;;;;;7403063;19;20498;-89
2022/06/06 02:10:15;;;;;;;7.22;4.72;;;14.70;99.90;;;;;;7403504;19;20034;-86
2022/06/06 02:12:46;;;;;;;6.95;4.65;;;14.70;99.90;;;;;;7406860;19;20017;-90
2022/06/06 02:15:22;;;;;;;5.85;4.38;;;14.60;99.90;;;;;;7402899;19;20522;-90
2022/06/06 02:17:53;;;;;;;5.68;4.00;;;14.60;99.90;;;;;;7402106;19;20494;-90
2022/06/06 02:20:27;;;;;;;5.03;3.72;;;14.50;99.90;;;;;;7403794;19;20007;-89
2022/06/06 02:22:57;;;;;;;6.28;3.65;;;14.70;99.90;;;;;;7402315;19;20010;-88
2022/06/06 02:25:29;;;;;;;5.05;3.70;;;14.50;99.90;;;;;;7404382;19;20014;-90
2022/06/06 02:28:01;;;;;;;5.28;3.58;;;14.50;99.90;;;;;;7402260;19;20014;-89
2022/06/06 02:30:37;;;;;;;5.50;3.38;;;14.50;99.90;;;;;;7408595;19;20070;-90
2022/06/06 02:33:11;;;;;;;5.40;3.50;;;14.40;99.90;;;;;;7404910;19;20480;-90
2022/06/06 02:35:44;;;;;;;4.53;3.63;;;14.40;99.90;;;;;;7402856;19;20006;-91
2022/06/06 02:38:16;;;;;;;5.82;3.83;;;14.50;99.90;;;;;;7401245;19;20010;-90
2022/06/06 02:40:46;;;;;;;6.80;4.13;;;14.60;99.90;;;;;;7400939;19;20003;-91
2022/06/06 02:43:21;;;;;;;6.55;4.05;;;14.40;99.90;;;;;;7403106;19;20034;-91
2022/06/06 02:45:55;;;;;;;5.00;3.90;;;14.30;99.90;;;;;;7402723;19;20007;-91
2022/06/06 02:48:26;;;;;;;5.43;4.28;;;14.30;99.90;;;;;;7401716;19;20387;-89
2022/06/06 02:50:58;;;;;;;5.97;4.25;;;14.20;99.90;;;;;;7403812;19;20071;-89
2022/06/06 02:53:32;;;;;;;5.63;4.10;;;14.10;99.90;;;;;;7402263;19;20501;-90
2022/06/06 02:56:03;;;;;;;5.28;3.97;;;14.20;99.90;;;;;;7401984;19;20014;-90
2022/06/06 02:58:33;;;;;;;6.20;4.20;;;14.10;99.90;;;;;;7400843;19;20014;-91
2022/06/06 03:01:10;;;;;;;6.70;4.57;;;14.20;99.90;;;;;;7401588;19;20021;-90
2022/06/06 03:03:42;;;;;;;5.68;4.60;;;14.00;99.90;;;;;;7404447;19;20010;-90
2022/06/06 03:06:29;;;;;;;8.20;5.00;;;14.00;99.90;;;;;;7400826;19;20007;-90
2022/06/06 03:09:17;;;;;;;6.95;4.10;;;13.90;99.90;;;;;;7402743;19;20018;-89
2022/06/06 03:12:02;;;;;;;7.22;4.50;;;14.00;99.90;;;;;;7402675;19;20469;-89
2022/06/06 03:14:53;;;;;;;6.65;4.50;;;14.00;99.90;;;;;;7401733;19;20473;-90
2022/06/06 03:20:50;;;;;;;6.72;4.50;;;13.80;99.90;;;;;;7403186;19;20070;-89
2022/06/06 03:23:46;;;;;;;5.57;3.80;;;13.80;99.90;;;;;;7400301;19;20014;-89
2022/06/06 03:26:24;;;;;;;6.88;4.82;;;14.00;99.90;;;;;;7399350;19;20011;-89
2022/06/06 03:29:22;;;;;;;7.75;5.18;;;14.00;99.90;;;;;;7400337;19;20021;-90
2022/06/06 03:32:00;;;;;;;8.00;4.50;;;13.80;99.90;;;;;;7402771;19;20010;-90
2022/06/06 03:34:42;;;;;;;8.32;5.00;;;13.60;99.90;;;;;;7400249;19;20465;-89
2022/06/06 03:37:24;;;;;;;6.85;4.60;;;13.80;99.90;;;;;;7402817;19;20013;-90
2022/06/06 03:40:03;;;;;;;6.70;4.32;;;13.50;99.90;;;;;;7400441;19;20006;-90
2022/06/06 03:42:41;;;;;;;7.43;4.50;;;13.90;99.90;;;;;;7399575;19;20022;-85
2022/06/06 03:45:19;;;;;;;7.72;5.00;;;13.80;99.90;;;;;;7398313;19;20086;-88
2022/06/06 03:48:04;;;;;;;9.93;4.72;;;13.80;99.90;;;;;;7400646;19;20028;-89
2022/06/06 03:50:47;;;;;;;6.53;4.93;;;13.50;99.90;;;;;;7400210;19;20019;-90
2022/06/06 03:53:26;;;;;;;5.57;4.25;;;13.60;99.90;;;;;;7399381;19;20006;-90
2022/06/06 03:56:12;;;;;;;6.38;4.50;;;13.70;99.90;;;;;;7398514;19;20014;-90
2022/06/06 03:58:43;;;;;;;6.35;4.40;;;13.60;99.90;;;;;;7400796;19;20019;-91
2022/06/06 04:01:15;;;;;;;5.93;4.22;;;13.60;99.90;;;;;;7405768;19;20051;-89
2022/06/06 04:03:47;;;;;;;6.85;4.30;;;13.60;99.90;;;;;;7406707;19;20470;-90
2022/06/06 04:06:21;;;;;;;5.65;3.80;;;13.80;99.90;;;;;;7407314;19;20011;-88
2022/06/06 04:08:52;;;;;;;5.28;3.72;;;13.80;99.90;;;;;;7407119;19;20014;-90
2022/06/06 04:11:34;;;;;;;5.22;3.92;;;13.70;99.90;;;;;;7407898;19;20019;-88
2022/06/06 04:14:19;;;;;;;4.97;3.20;;;13.70;99.90;;;;;;7406465;19;20012;-90
2022/06/06 04:16:58;;;;;;;4.82;3.58;;;13.60;99.90;;;;;;7407019;19;20007;-91
2022/06/06 04:19:39;;;;;;;4.22;3.15;;;13.60;99.90;;;;;;7405285;19;20077;-90
2022/06/06 04:22:26;;;;;;;3.70;2.72;;;13.70;99.90;;;;;;7412545;19;20019;-87
2022/06/06 04:25:09;;;;;;;4.00;2.38;;;13.60;99.90;;;;;;7407401;19;20492;-90
2022/06/06 04:27:46;;;;;;;4.20;2.75;;;13.80;99.90;;;;;;7408192;19;20003;-90
2022/06/06 04:30:24;;;;;;;4.60;3.08;;;13.80;99.90;;;;;;7409905;19;20011;-90
2022/06/06 04:33:04;;;;;;;11.52;5.65;;;13.80;99.90;;;;;;7408000;19;20017;-91
2022/06/06 04:35:47;;;;;;;12.70;6.07;;;12.00;99.90;;;;;;7407469;19;20010;-90
2022/06/06 04:38:27;;;;;;;11.05;6.18;;;13.60;99.90;;;;;;7409031;19;20022;-90
2022/06/06 04:41:06;;;;;;;10.40;6.30;;;13.60;99.90;;;;;;7405427;19;20011;-89
2022/06/06 04:43:43;;;;;;;10.20;6.05;;;13.60;99.90;;;;;;7405891;19;20074;-90
2022/06/06 04:46:20;;;;;;;10.50;6.53;;;13.60;99.90;;;;;;7410265;19;20007;-90
2022/06/06 04:48:54;;;;;;;10.15;5.68;;;13.40;99.90;;;;;;7406085;19;20031;-90
2022/06/06 04:51:25;;;;;;;9.88;5.90;;;13.50;99.90;;;;;;7405436;19;20003;-90
2022/06/06 04:54:01;;;;;;;9.30;6.20;;;13.50;99.90;;;;;;7406056;19;20028;-88
2022/06/06 04:56:33;;;;;;;10.27;6.10;;;13.60;99.90;;;;;;7406993;19;20015;-89
2022/06/06 04:59:06;;;;;;;9.05;5.25;;;13.60;99.90;;;;;;7406222;19;20259;-88
2022/06/06 05:01:38;;;;;;;9.50;5.10;;;13.50;99.90;;;;;;7408009;19;20014;-89
2022/06/06 05:04:10;;;;;;;9.63;5.35;;;13.40;99.90;;;;;;7405466;19;20074;-89
2022/06/06 05:07:01;;;;;;;9.13;5.03;;;13.50;99.90;;;;;;7406208;19;20007;-91
2022/06/06 05:09:58;;;;;;;10.30;4.82;;;13.50;99.90;;;;;;7402344;19;20014;-89
2022/06/06 05:12:59;;;;;;;7.35;4.45;;;13.50;99.90;;;;;;7403968;19;20018;-89
2022/06/06 05:15:49;;;;;;;9.77;4.50;;;13.40;99.90;;;;;;7405414;19;20010;-90
2022/06/06 05:18:39;;;;;;;8.50;4.03;;;13.50;99.90;;;;;;7402910;19;20014;-88
2022/06/06 05:21:27;;;;;;;8.25;3.92;;;13.40;99.90;;;;;;7408433;19;20014;-89
2022/06/06 05:24:26;;;;;;;7.57;4.22;;;13.20;99.90;;;;;;7410399;19;20030;-89
2022/06/06 05:27:15;;;;;;;8.32;4.32;;;13.20;99.90;;;;;;7408954;19;20077;-89
2022/06/06 05:30:07;;;;;;;7.35;4.15;;;13.10;99.90;;;;;;7409720;19;20014;-88
2022/06/06 05:32:54;;;;;;;8.05;4.30;;;13.30;99.90;;;;;;7404699;19;20006;-87
2022/06/06 05:35:35;;;;;;;8.77;5.35;;;13.30;99.90;;;;;;7410033;19;20003;-89
2022/06/06 05:38:17;;;;;;;12.15;6.68;;;13.10;99.90;;;;;;7405800;19;20074;-86
2022/06/06 05:40:55;;;;;;;13.50;7.60;;;13.20;99.90;;;;;;7406660;19;20023;-89
2022/06/06 05:43:47;;;;;;;14.68;8.02;;;13.10;99.90;;;;;;7407706;19;20018;-89
2022/06/06 05:46:34;;;;;;;17.65;9.93;;;13.20;99.90;;;;;;7410229;19;20010;-88
2022/06/06 05:49:17;;;;;;;17.08;9.40;;;13.10;99.90;;;;;;7405949;19;20014;-88
2022/06/06 05:51:58;;;;;;;22.33;10.77;;;13.00;99.90;;;;;;7406057;19;20017;-89
2022/06/06 05:54:55;;;;;;;17.90;10.05;;;13.20;99.90;;;;;;7403451;19;20025;-89
2022/06/06 05:57:44;;;;;;;18.38;9.88;;;13.20;99.90;;;;;;7405479;19;20050;-86
2022/06/06 06:00:22;;;;;;;15.55;9.63;;;13.30;99.90;;;;;;7411076;19;20010;-87
2022/06/06 06:03:17;;;;;;;15.77;9.55;;;13.40;99.90;;;;;;7402443;19;20007;-88
2022/06/06 06:06:01;;;;;;;16.90;9.15;;;13.20;99.90;;;;;;7405050;19;20025;-89
2022/06/06 06:08:55;;;;;;;17.70;9.73;;;13.20;99.90;;;;;;7405694;19;20010;-90
2022/06/06 06:11:54;;;;;;;19.92;11.07;;;13.20;99.90;;;;;;7413281;19;20010;-90
2022/06/06 06:14:40;;;;;;;17.60;10.27;;;13.10;99.90;;;;;;7401289;19;20010;-90
2022/06/06 06:17:18;;;;;;;19.92;10.00;;;13.20;99.90;;;;;;7396622;19;20064;-90
2022/06/06 06:19:59;;;;;;;17.48;8.88;;;13.10;99.90;;;;;;7394391;19;20014;-90
2022/06/06 06:22:40;;;;;;;19.23;9.52;;;13.20;99.90;;;;;;7399350;19;20081;-91
2022/06/06 06:25:12;;;;;;;16.08;8.73;;;13.00;99.90;;;;;;7396924;19;20022;-89
2022/06/06 06:27:45;;;;;;;16.10;8.25;;;13.20;99.90;;;;;;7399280;19;20461;-90
2022/06/06 06:30:17;;;;;;;16.85;8.48;;;13.30;99.90;;;;;;7401540;19;20036;-90
2022/06/06 06:33:06;;;;;;;18.63;8.60;;;13.20;99.90;;;;;;7396503;19;20040;-89
2022/06/06 06:35:52;;;;;;;18.67;8.82;;;13.20;99.90;;;;;;7396513;19;20031;-89
2022/06/06 06:38:40;;;;;;;14.85;8.23;;;13.30;99.90;;;;;;7396537;19;20026;-90
2022/06/06 06:41:23;;;;;;;15.73;8.27;;;13.20;99.90;;;;;;7398429;19;20014;-91
2022/06/06 06:44:12;;;;;;;16.60;8.35;;;13.40;99.90;;;;;;7400040;19;20011;-90
2022/06/06 06:46:46;;;;;;;14.50;8.02;;;13.30;99.90;;;;;;7397261;19;20014;-89
2022/06/06 06:49:38;;;;;;;15.90;7.80;;;13.30;99.90;;;;;;7398052;19;20031;-90
2022/06/06 06:52:21;;;;;;;14.35;7.38;;;13.10;99.90;;;;;;7400715;19;20015;-90
2022/06/06 06:55:11;;;;;;;14.43;6.82;;;13.20;99.90;;;;;;7397497;19;20022;-90
2022/06/06 06:58:04;;;;;;;11.10;6.30;;;13.20;99.90;;;;;;7399467;19;20003;-90
2022/06/06 07:00:44;;;;;;;16.77;6.65;;;13.40;99.90;;;;;;7400763;19;20006;-90
2022/06/06 07:09:14;;;;;;;12.13;6.47;;;13.40;99.90;;;;;;7398501;19;20010;-90
2022/06/06 07:12:06;;;;;;;12.07;6.85;;;13.40;99.90;;;;;;7400242;19;20042;-90
2022/06/06 07:15:00;;;;;;;16.15;7.28;;;13.40;99.90;;;;;;7398409;19;20006;-90
2022/06/06 07:17:36;;;;;;;12.82;6.20;;;13.60;99.90;;;;;;7398831;19;20074;-90
2022/06/06 07:20:11;;;;;;;12.35;6.38;;;13.70;99.90;;;;;;7397868;19;20031;-91
2022/06/06 07:23:05;;;;;;;14.68;6.70;;;13.30;99.90;;;;;;7403405;19;20006;-89
2022/06/06 07:25:41;;;;;;;15.10;6.68;;;13.40;99.90;;;;;;7398121;19;20496;-89
2022/06/06 07:28:16;;;;;;;13.05;7.18;;;13.40;99.90;;;;;;7402366;19;20007;-90
2022/06/06 07:31:00;;;;;;;14.35;7.80;;;13.60;99.90;;;;;;7399245;19;20015;-90
2022/06/06 07:34:05;;;;;;;14.85;7.15;;;13.50;99.90;;;;;;7400042;19;20006;-90
2022/06/06 07:36:49;;;;;;;14.10;6.53;;;13.50;99.90;;;;;;7404841;19;20047;-91
2022/06/06 07:39:34;;;;;;;14.45;7.32;;;13.60;99.90;;;;;;7406651;19;20011;-89
2022/06/06 07:42:22;;;;;;;13.18;6.47;;;13.70;99.90;;;;;;7405186;19;20014;-90
2022/06/06 07:45:05;;;;;;;14.35;6.30;;;13.90;99.90;;;;;;7404120;19;20010;-90
2022/06/06 07:47:51;;;;;;;13.65;5.65;;;14.00;99.90;;;;;;7405250;19;20007;-90
2022/06/06 07:50:26;;;;;;;10.07;5.75;;;13.90;99.90;;;;;;7403241;19;20070;-89
2022/06/06 07:53:05;;;;;;;11.00;5.32;;;14.00;99.90;;;;;;7408056;19;20007;-90
2022/06/06 07:55:49;;;;;;;11.02;5.50;;;14.10;99.90;;;;;;7405266;19;20022;-90
2022/06/06 07:58:24;;;;;;;9.95;5.25;;;14.40;99.90;;;;;;7409476;19;20011;-88
2022/06/06 08:01:04;;;;;;;13.65;5.80;;;14.50;99.90;;;;;;7403926;19;20035;-89
2022/06/06 08:03:43;;;;;;;11.60;5.47;;;14.50;99.90;;;;;;7409079;19;20025;-88
2022/06/06 08:06:26;;;;;;;8.48;4.50;;;14.40;99.90;;;;;;7406732;19;20508;-87
2022/06/06 08:09:20;;;;;;;10.77;4.90;;;14.70;99.90;;;;;;7408892;19;20007;-87
2022/06/06 08:12:04;;;;;;;9.30;4.65;;;14.50;99.90;;;;;;7406253;19;20014;-88
2022/06/06 08:14:49;;;;;;;9.55;4.75;;;14.80;99.90;;;;;;7407951;19;20014;-88
2022/06/06 08:17:29;;;;;;;9.52;4.70;;;14.90;99.90;;;;;;7407465;19;20018;-88
2022/06/06 08:20:10;;;;;;;8.10;4.57;;;14.90;99.90;;;;;;7404334;19;20485;-88
2022/06/06 08:22:42;;;;;;;8.27;4.15;;;13.10;99.90;;;;;;7405824;19;20404;-87
2022/06/06 08:25:17;;;;;;;7.18;3.92;;;14.80;99.90;;;;;;7404841;19;20035;-88
2022/06/06 08:27:53;;;;;;;8.60;4.13;;;14.90;99.90;;;;;;7405699;19;20021;-88
2022/06/06 08:30:27;;;;;;;10.25;4.32;;;14.80;99.90;;;;;;7401724;19;20025;-89
2022/06/06 08:33:01;;;;;;;6.88;4.00;;;14.90;99.90;;;;;;7404742;19;20034;-88
2022/06/06 08:35:46;;;;;;;9.60;4.35;;;15.00;99.90;;;;;;7401603;19;20002;-89
2022/06/06 08:38:43;;;;;;;9.70;4.65;;;14.90;99.90;;;;;;7401673;19;20293;-89
2022/06/06 08:41:46;;;;;;;8.43;4.45;;;15.10;99.90;;;;;;7401193;19;20411;-88
2022/06/06 08:44:37;;;;;;;10.23;5.40;;;15.10;99.90;;;;;;7405281;19;20015;-88
2022/06/06 08:47:15;;;;;;;9.73;4.93;;;15.40;99.90;;;;;;7401374;19;20010;-88
2022/06/06 08:53:28;;;;;;;11.43;5.28;;;15.50;99.90;;;;;;7401306;19;20014;-88
2022/06/06 08:56:26;;;;;;;13.63;5.95;;;15.80;99.90;;;;;;7405273;19;20006;-89
2022/06/06 08:59:34;;;;;;;10.25;5.20;;;15.50;99.90;;;;;;7401563;19;20539;-88
2022/06/06 09:02:42;;;;;;;12.05;4.70;;;15.50;99.90;;;;;;7401974;19;20011;-88
2022/06/06 09:05:40;;;;;;;10.07;4.85;;;15.40;99.90;;;;;;7401950;19;20462;-87
2022/06/06 09:08:48;;;;;;;8.73;5.25;;;15.40;99.90;;;;;;7400075;19;20018;-89
2022/06/06 09:11:52;;;;;;;9.90;5.32;;;15.30;99.90;;;;;;7397689;19;20015;-89
2022/06/06 09:15:07;;;;;;;9.60;5.13;;;15.10;99.90;;;;;;7401017;19;20002;-88
2022/06/06 09:18:15;;;;;;;9.13;4.75;;;15.10;99.90;;;;;;7404433;19;20506;-87
2022/06/06 09:21:25;;;;;;;11.23;5.18;;;15.10;99.90;;;;;;7403735;19;20017;-87
2022/06/06 09:24:28;;;;;;;8.13;4.40;;;15.20;99.90;;;;;;7404331;19;20010;-86
2022/06/06 09:27:29;;;;;;;8.88;4.40;;;15.30;99.90;;;;;;7401663;19;20015;-88
2022/06/06 09:30:16;;;;;;;7.72;3.58;;;15.40;99.90;;;;;;7399443;19;20021;-87
2022/06/06 09:33:19;;;;;;;7.93;3.85;;;15.60;99.90;;;;;;7399718;19;20021;-87
2022/06/06 09:36:19;;;;;;;7.28;3.85;;;15.60;99.90;;;;;;7399714;19;20021;-87
2022/06/06 09:39:13;;;;;;;6.22;3.20;;;15.70;99.90;;;;;;7403323;19;20469;-86
2022/06/06 09:42:02;;;;;;;5.93;3.22;;;15.80;99.90;;;;;;7402018;19;20011;-86
2022/06/06 09:45:20;;;;;;;4.10;2.30;;;15.80;99.90;;;;;;7401174;19;20022;-87
2022/06/06 09:48:33;;;;;;;7.75;2.90;;;15.70;99.90;;;;;;7402101;19;20011;-86
2022/06/06 09:51:29;;;;;;;7.32;2.83;;;15.90;99.90;;;;;;7404809;19;20023;-87
2022/06/06 10:00:36;;;;;;;4.90;2.58;;;16.00;99.90;;;;;;7398946;19;20048;-86
2022/06/06 10:03:39;;;;;;;7.18;2.70;;;16.30;99.90;;;;;;7401340;19;20015;-86
2022/06/06 10:06:31;;;;;;;4.63;2.70;;;16.20;99.90;;;;;;7399464;19;20018;-87
2022/06/06 10:09:55;;;;;;;7.28;2.60;;;16.50;99.90;;;;;;7402050;19;20014;-87
2022/06/06 10:12:46;;;;;;;5.78;2.25;;;16.30;99.90;;;;;;7399810;19;20014;-85
2022/06/06 10:15:39;;;;;;;4.57;2.10;;;16.40;99.90;;;;;;7402914;19;20027;-87
2022/06/06 10:18:54;;;;;;;4.03;2.00;;;16.50;99.90;;;;;;7402001;19;20018;-88
2022/06/06 10:21:48;;;;;;;7.78;2.10;;;16.20;99.90;;;;;;7403339;19;20018;-85
2022/06/06 10:24:50;;;;;;;4.05;1.80;;;16.20;99.90;;;;;;7404821;19;20078;-87
2022/06/06 10:27:38;;;;;;;2.50;1.70;;;16.20;99.90;;;;;;7402274;19;20014;-89
2022/06/06 10:30:14;;;;;;;4.13;1.90;;;15.70;99.90;;;;;;7403015;19;20452;-87
2022/06/06 10:33:15;;;;;;;5.80;2.10;;;15.70;99.90;;;;;;7404151;19;20006;-87
2022/06/06 10:36:05;;;;;;;4.47;2.30;;;15.40;99.90;;;;;;7402287;19;20006;-86
2022/06/06 10:39:02;;;;;;;5.07;2.38;;;15.50;99.90;;;;;;7400421;19;20015;-86
2022/06/06 10:42:06;;;;;;;4.82;3.30;;;15.70;99.90;;;;;;7401380;19;20017;-86
2022/06/06 10:45:05;;;;;;;5.78;2.90;;;15.70;99.90;;;;;;7402026;19;20030;-86
2022/06/06 10:47:54;;;;;;;3.35;2.60;;;15.80;99.90;;;;;;7401168;19;20010;-86
2022/06/06 10:50:34;;;;;;;3.78;2.70;;;15.80;99.90;;;;;;7401509;19;20017;-87
2022/06/06 10:53:32;;;;;;;3.85;2.65;;;15.60;99.90;;;;;;7400880;19;20018;-87
2022/06/06 10:56:43;;;;;;;4.35;2.58;;;15.90;99.90;;;;;;7404472;19;20015;-86
2022/06/06 10:59:52;;;;;;;3.95;2.33;;;16.10;99.90;;;;;;7399592;19;20026;-87
2022/06/06 11:02:59;;;;;;;5.32;2.85;;;16.10;99.90;;;;;;7399396;19;20010;-86
2022/06/06 11:05:53;;;;;;;5.18;3.17;;;15.60;99.90;;;;;;7398698;19;20034;-87
2022/06/06 11:09:05;;;;;;;6.93;3.00;;;15.00;99.90;;;;;;7400026;19;20433;-88
2022/06/06 11:12:08;;;;;;;4.07;2.30;;;15.20;99.90;;;;;;7404732;19;20018;-88
2022/06/06 11:14:45;;;;;;;8.48;3.08;;;15.00;99.90;;;;;;7406131;19;20068;-88
2022/06/06 11:17:55;;;;;;;3.75;3.00;;;15.40;99.90;;;;;;7406978;19;20014;-89
2022/06/06 11:21:10;;;;;;;4.38;3.25;;;15.60;99.90;;;;;;7403293;19;20036;-88
2022/06/06 11:23:49;;;;;;;5.72;3.00;;;15.90;99.90;;;;;;7404285;19;20022;-88
2022/06/06 11:26:51;;;;;;;4.70;2.70;;;15.90;99.90;;;;;;7407635;19;20038;-87
2022/06/06 11:30:00;;;;;;;4.65;2.83;;;16.00;99.90;;;;;;7402583;19;20006;-88
2022/06/06 11:33:06;;;;;;;4.90;2.90;;;16.20;99.90;;;;;;7399932;19;20070;-88
2022/06/06 11:35:51;;;;;;;4.47;3.08;;;16.30;99.90;;;;;;7403468;19;20019;-88
2022/06/06 11:39:05;;;;;;;4.07;2.90;;;16.60;99.90;;;;;;7404664;19;20007;-87
2022/06/06 11:41:54;;;;;;;6.70;2.80;;;16.50;99.90;;;;;;7400572;19;20034;-87
2022/06/06 11:44:53;;;;;;;5.15;3.15;;;16.60;99.90;;;;;;7403935;19;20028;-85
2022/06/06 11:47:45;;;;;;;2.78;1.90;;;16.40;99.90;;;;;;7405852;19;20034;-86
2022/06/06 11:50:51;;;;;;;2.80;2.15;;;16.40;99.90;;;;;;7404855;19;20010;-86
2022/06/06 11:53:59;;;;;;;3.35;2.28;;;16.30;99.90;;;;;;7403062;19;20010;-86
2022/06/06 11:56:55;;;;;;;3.50;2.20;;;16.10;99.90;;;;;;7404801;19;20023;-87
2022/06/06 11:59:57;;;;;;;2.28;1.88;;;15.80;99.90;;;;;;7400792;19;20026;-87
2022/06/06 12:03:00;;;;;;;2.33;1.63;;;15.80;99.90;;;;;;7403073;19;20038;-87
2022/06/06 12:06:00;;;;;;;3.25;1.77;;;16.00;99.90;;;;;;7401553;19;20461;-87
2022/06/06 12:09:02;;;;;;;4.05;1.60;;;16.00;99.90;;;;;;7409653;19;20485;-88
2022/06/06 12:12:05;;;;;;;2.95;1.83;;;16.60;99.90;;;;;;7404246;19;20015;-88
2022/06/06 12:15:05;;;;;;;2.38;1.30;;;16.60;99.90;;;;;;7401439;19;20010;-88
2022/06/06 12:18:04;;;;;;;1.70;1.40;;;16.80;99.90;;;;;;7402536;19;20014;-84
2022/06/06 12:21:06;;;;;;;2.42;1.50;;;16.90;99.90;;;;;;7399297;19;20041;-86
2022/06/06 12:23:54;;;;;;;3.20;1.70;;;17.10;99.90;;;;;;7403191;19;20021;-85
2022/06/06 12:26:41;;;;;;;3.17;1.60;;;17.40;99.90;;;;;;7406172;19;20011;-88
2022/06/06 12:29:36;;;;;;;4.65;1.65;;;17.40;99.90;;;;;;7399833;19;20010;-86
2022/06/06 12:32:42;;;;;;;6.47;1.92;;;17.60;99.90;;;;;;7397392;19;20398;-86
2022/06/06 12:35:23;;;;;;;3.00;1.65;;;17.80;99.90;;;;;;7399647;19;20010;-86
2022/06/06 12:38:09;;;;;;;3.42;1.60;;;17.90;99.90;;;;;;7400697;19;20031;-86
2022/06/06 12:40:50;;;;;;;4.38;1.90;;;18.00;99.90;;;;;;7401763;19;20006;-86
2022/06/06 12:43:34;;;;;;;2.88;2.00;;;17.70;99.90;;;;;;7400921;19;20116;-86
2022/06/06 12:46:32;;;;;;;4.05;1.80;;;18.00;99.90;;;;;;7403942;19;20018;-86
2022/06/06 12:49:26;;;;;;;4.50;1.90;;;18.10;99.90;;;;;;7403142;19;20017;-86
2022/06/06 12:52:15;;;;;;;2.97;1.50;;;17.80;99.90;;;;;;7405730;19;20070;-87
2022/06/06 12:58:01;;;;;;;2.28;1.58;;;17.70;99.90;;;;;;7403614;19;20469;-86
2022/06/06 13:03:26;;;;;;;3.60;1.30;;;17.50;99.90;;;;;;7402879;19;20072;-87
2022/06/06 13:06:07;;;;;;;5.78;2.08;;;17.50;99.90;;;;;;7403328;19;20043;-86
2022/06/06 13:09:06;;;;;;;2.75;1.30;;;17.60;99.70;;;;;;7405458;19;20015;-87
2022/06/06 13:11:55;;;;;;;4.38;1.40;;;17.90;99.50;;;;;;7403772;19;20031;-86
2022/06/06 13:14:58;;;;;;;3.38;1.40;;;17.70;99.70;;;;;;7408963;19;20022;-86
2022/06/06 13:17:40;;;;;;;9.98;1.33;;;17.60;99.70;;;;;;7404464;19;20035;-87
2022/06/06 13:20:30;;;;;;;2.03;1.23;;;17.60;99.90;;;;;;7403559;19;20031;-85
2022/06/06 13:23:17;;;;;;;1.80;1.00;;;17.60;98.30;;;;;;7403759;19;20048;-86
2022/06/06 13:26:05;;;;;;;3.97;1.50;;;17.40;99.00;;;;;;7407344;19;20006;-87
2022/06/06 13:28:50;;;;;;;1.55;1.15;;;17.60;98.80;;;;;;7404046;19;20018;-84
2022/06/06 13:31:35;;;;;;;2.72;1.30;;;17.40;97.00;;;;;;7400350;19;20565;-86
2022/06/06 13:34:28;;;;;;;4.47;1.40;;;17.40;98.50;;;;;;7404836;19;20022;-87
2022/06/06 13:37:23;;;;;;;1.80;1.30;;;17.20;99.10;;;;;;7402217;19;20352;-89
2022/06/06 13:40:23;;;;;;;3.17;1.50;;;17.20;99.20;;;;;;7402592;19;20011;-86
2022/06/06 13:43:36;;;;;;;2.78;1.45;;;17.00;99.60;;;;;;7405625;19;20041;-89
2022/06/06 13:46:21;;;;;;;3.00;1.60;;;16.90;99.90;;;;;;7400062;19;20019;-88
2022/06/06 13:49:32;;;;;;;1.67;1.40;;;17.10;99.90;;;;;;7403052;19;20007;-89
2022/06/06 13:52:26;;;;;;;2.35;1.35;;;17.10;99.90;;;;;;7402639;19;20102;-88
2022/06/06 13:54:56;;;;;;;6.80;4.25;;;17.20;99.90;;;;;;7402536;19;20018;-87
2022/06/06 13:57:30;;;;;;;13.77;8.63;;;17.20;99.90;;;;;;7405293;19;20035;-88
2022/06/06 14:00:28;;;;;;;4.40;2.15;;;17.40;99.90;;;;;;7396615;19;20019;-89
2022/06/06 14:03:37;;;;;;;2.42;1.70;;;17.40;99.90;;;;;;7396456;19;20490;-90
2022/06/06 14:06:32;;;;;;;4.53;1.92;;;17.20;99.90;;;;;;7401496;19;20028;-89
2022/06/06 14:09:02;;;;;;;2.67;1.73;;;17.20;99.90;;;;;;7397767;19;20015;-85
2022/06/06 14:11:59;;;;;;;2.45;1.50;;;16.90;99.90;;;;;;7401463;19;20424;-87
2022/06/06 14:14:30;;;;;;;3.92;1.77;;;17.00;99.90;;;;;;7403849;19;20011;-86
2022/06/06 14:17:07;;;;;;;3.25;1.83;;;16.60;99.90;;;;;;7398504;19;20015;-85
2022/06/06 14:19:55;;;;;;;5.75;2.20;;;18.80;99.90;;;;;;7399870;19;20010;-87
2022/06/06 14:22:31;;;;;;;3.30;1.70;;;16.40;99.90;;;;;;7398085;19;20022;-87
2022/06/06 14:25:05;;;;;;;2.78;1.70;;;16.20;99.90;;;;;;7398620;19;20024;-87
2022/06/06 14:27:36;;;;;;;4.28;1.77;;;16.20;99.90;;;;;;7398003;19;20015;-87
2022/06/06 14:30:10;;;;;;;3.10;1.95;;;16.20;99.90;;;;;;7398219;19;20015;-86
2022/06/06 14:33:00;;;;;;;3.83;1.63;;;16.10;99.90;;;;;;7400071;19;20050;-87
2022/06/06 14:35:43;;;;;;;2.97;1.85;;;16.10;99.90;;;;;;7396496;19;20010;-87
2022/06/06 14:38:16;;;;;;;2.80;1.90;;;15.80;99.90;;;;;;7399106;19;20038;-86
2022/06/06 14:40:50;;;;;;;6.15;2.70;;;15.80;99.90;;;;;;7400001;19;20046;-87
2022/06/06 14:43:23;;;;;;;5.67;2.20;;;15.50;99.90;;;;;;7395623;19;20357;-86
2022/06/06 14:45:58;;;;;;;3.78;2.40;;;15.50;99.90;;;;;;7396226;19;20021;-87